createdAt,value
2024-04-15T00:01:37.491Z,13.49
2024-04-15T00:04:04.687Z,13.47
2024-04-15T00:06:31.705Z,13.43
2024-04-15T00:08:58.803Z,13.39
2024-04-15T00:11:25.884Z,13.36
2024-04-15T00:13:52.836Z,13.39
2024-04-15T00:16:20.318Z,13.43
2024-04-15T00:18:47.421Z,13.47
2024-04-15T00:21:14.295Z,13.50
2024-04-15T00:23:41.357Z,13.50
2024-04-15T00:26:08.453Z,13.51
2024-04-15T00:28:35.691Z,13.51
2024-04-15T00:31:03.402Z,13.51
2024-04-15T00:33:30.578Z,13.49
2024-04-15T00:35:57.514Z,13.49
2024-04-15T00:38:24.614Z,13.46
2024-04-15T00:40:54.532Z,13.40
2024-04-15T00:43:21.623Z,13.35
2024-04-15T00:45:48.983Z,13.30
2024-04-15T00:48:24.256Z,13.26
2024-04-15T00:50:59.529Z,13.25
2024-04-15T00:53:29.670Z,13.23
2024-04-15T00:55:59.248Z,13.24
2024-04-15T00:58:26.900Z,13.23
2024-04-15T01:00:54.620Z,13.24
2024-04-15T01:03:22.739Z,13.25
2024-04-15T01:05:50.242Z,13.23
2024-04-15T01:08:18.026Z,13.21
2024-04-15T01:10:54.907Z,13.16
2024-04-15T01:13:27.426Z,13.13
2024-04-15T01:15:58.151Z,13.13
2024-04-15T01:18:25.694Z,13.16
2024-04-15T01:20:54.971Z,13.16
2024-04-15T01:23:27.647Z,13.09
2024-04-15T01:25:54.702Z,13.07
2024-04-15T01:28:21.962Z,13.04
2024-04-15T01:30:48.913Z,13.04
2024-04-15T01:33:16.061Z,13.04
2024-04-15T01:35:43.043Z,13.04
2024-04-15T01:38:13.134Z,13.03
2024-04-15T01:40:45.424Z,12.97
2024-04-15T01:43:12.688Z,12.94
2024-04-15T01:45:39.744Z,12.92
2024-04-15T01:48:06.957Z,12.85
2024-04-15T01:50:34.006Z,12.89
2024-04-15T01:53:00.970Z,12.90
2024-04-15T01:55:31.517Z,12.91
2024-04-15T01:58:02.190Z,12.90
2024-04-15T02:00:29.256Z,12.85
2024-04-15T02:02:56.537Z,12.81
2024-04-15T02:05:23.768Z,12.77
2024-04-15T02:07:50.696Z,12.74
2024-04-15T02:10:18.062Z,12.71
2024-04-15T02:12:45.332Z,12.70
2024-04-15T02:15:12.341Z,12.66
2024-04-15T02:17:43.039Z,12.62
2024-04-15T02:20:13.617Z,12.61
2024-04-15T02:22:43.468Z,12.59
2024-04-15T02:25:10.345Z,12.54
2024-04-15T02:27:37.435Z,12.51
2024-04-15T02:30:05.971Z,12.51
2024-04-15T02:32:32.894Z,12.53
2024-04-15T02:35:00.945Z,12.57
2024-04-15T02:37:27.870Z,12.59
2024-04-15T02:39:54.798Z,12.58
2024-04-15T02:42:21.790Z,12.59
2024-04-15T02:44:48.851Z,12.57
2024-04-15T02:47:15.669Z,12.56
2024-04-15T02:49:42.607Z,12.57
2024-04-15T02:52:09.616Z,12.59
2024-04-15T02:54:36.626Z,12.64
2024-04-15T02:57:03.918Z,12.69
2024-04-15T02:59:31.177Z,12.73
2024-04-15T03:01:58.173Z,12.76
2024-04-15T03:04:25.362Z,12.75
2024-04-15T03:06:52.755Z,12.77
2024-04-15T03:09:21.725Z,12.75
2024-04-15T03:11:49.241Z,12.74
2024-04-15T03:14:16.453Z,12.67
2024-04-15T03:16:44.332Z,12.64
2024-04-15T03:19:11.723Z,12.64
2024-04-15T03:21:39.191Z,12.64
2024-04-15T03:24:06.878Z,12.64
2024-04-15T03:26:39.706Z,12.60
2024-04-15T03:29:06.733Z,12.57
2024-04-15T03:31:33.738Z,12.50
2024-04-15T03:34:00.968Z,12.43
2024-04-15T03:36:28.428Z,12.44
2024-04-15T03:38:55.360Z,12.46
2024-04-15T03:41:22.236Z,12.49
2024-04-15T03:43:52.665Z,12.47
2024-04-15T03:46:22.923Z,12.43
2024-04-15T03:48:50.253Z,12.42
2024-04-15T03:51:17.919Z,12.46
2024-04-15T03:53:45.272Z,12.49
2024-04-15T03:56:17.339Z,12.51
2024-04-15T03:58:44.433Z,12.50
2024-04-15T04:01:11.593Z,12.49
2024-04-15T04:03:39.913Z,12.49
2024-04-15T04:06:11.595Z,12.55
2024-04-15T04:08:40.532Z,12.55
2024-04-15T04:11:08.327Z,12.62
2024-04-15T04:13:38.699Z,12.67
2024-04-15T04:16:06.118Z,12.71
2024-04-15T04:18:33.597Z,12.75
2024-04-15T04:21:01.028Z,12.82
2024-04-15T04:23:28.434Z,12.88
2024-04-15T04:25:55.698Z,12.93
2024-04-15T04:28:22.983Z,12.97
2024-04-15T04:30:50.213Z,13.00
2024-04-15T04:33:17.214Z,13.04
2024-04-15T04:35:44.386Z,13.10
2024-04-15T04:38:11.622Z,13.16
2024-04-15T04:40:38.525Z,13.25
2024-04-15T04:43:05.528Z,13.33
2024-04-15T04:45:33.300Z,13.42
2024-04-15T04:48:00.386Z,13.51
2024-04-15T04:50:27.564Z,13.59
2024-04-15T04:52:54.918Z,13.67
2024-04-15T04:55:23.626Z,13.77
2024-04-15T04:57:54.059Z,13.86
2024-04-15T05:00:21.537Z,13.92
2024-04-15T05:02:51.092Z,14.00
2024-04-15T05:05:18.570Z,14.07
2024-04-15T05:07:48.382Z,14.14
2024-04-15T05:10:18.605Z,14.21
2024-04-15T05:12:48.800Z,14.29
2024-04-15T05:15:16.138Z,14.40
2024-04-15T05:17:43.239Z,14.53
2024-04-15T05:20:10.623Z,14.66
2024-04-15T05:22:37.874Z,14.80
2024-04-15T05:25:09.059Z,14.93
2024-04-15T05:27:36.194Z,15.07
2024-04-15T05:30:03.258Z,15.22
2024-04-15T05:32:30.689Z,15.35
2024-04-15T05:34:57.745Z,15.47
2024-04-15T05:37:24.783Z,15.59
2024-04-15T05:39:52.007Z,15.71
2024-04-15T05:42:19.389Z,15.86
2024-04-15T05:44:46.587Z,15.99
2024-04-15T05:47:13.930Z,16.11
2024-04-15T05:49:41.248Z,16.22
2024-04-15T05:52:08.556Z,16.35
2024-04-15T05:54:35.855Z,16.51
2024-04-15T05:57:04.047Z,16.69
2024-04-15T05:59:31.208Z,16.84
2024-04-15T06:01:58.702Z,17.02
2024-04-15T06:04:26.228Z,17.17
2024-04-15T06:06:53.266Z,17.36
2024-04-15T06:09:22.744Z,17.58
2024-04-15T06:11:49.790Z,17.74
2024-04-15T06:14:17.142Z,17.91
2024-04-15T06:16:44.327Z,18.09
2024-04-15T06:19:11.995Z,18.21
2024-04-15T06:21:39.096Z,18.38
2024-04-15T06:24:06.037Z,18.49
2024-04-15T06:26:33.227Z,18.58
2024-04-15T06:29:01.516Z,18.69
2024-04-15T06:31:28.679Z,18.89
2024-04-15T06:33:56.140Z,19.08
2024-04-15T06:36:23.282Z,19.22
2024-04-15T06:38:50.440Z,19.36
2024-04-15T06:41:17.494Z,19.48
2024-04-15T06:43:44.440Z,19.60
2024-04-15T06:46:11.482Z,19.70
2024-04-15T06:48:41.721Z,19.80
2024-04-15T06:51:08.837Z,19.87
2024-04-15T06:53:36.011Z,19.94
2024-04-15T06:56:03.174Z,20.00
2024-04-15T06:58:30.240Z,20.05
2024-04-15T07:01:00.204Z,20.09
2024-04-15T07:03:27.284Z,20.14
2024-04-15T07:05:54.446Z,20.20
2024-04-15T07:08:21.395Z,20.24
2024-04-15T07:10:48.607Z,20.26
2024-04-15T07:13:15.696Z,20.30
2024-04-15T07:15:42.647Z,20.39
2024-04-15T07:18:12.430Z,20.43
2024-04-15T07:20:39.543Z,20.46
2024-04-15T07:23:06.839Z,20.49
2024-04-15T07:25:33.867Z,20.53
2024-04-15T07:28:00.861Z,20.58
2024-04-15T07:30:27.702Z,20.66
2024-04-15T07:32:55.363Z,20.75
2024-04-15T07:35:22.532Z,20.84
2024-04-15T07:37:49.475Z,20.89
2024-04-15T07:40:16.554Z,20.90
2024-04-15T07:42:45.001Z,20.97
2024-04-15T07:45:12.449Z,21.00
2024-04-15T07:47:39.663Z,21.04
2024-04-15T07:50:07.877Z,21.06
2024-04-15T07:52:35.087Z,21.07
2024-04-15T07:55:02.126Z,21.05
2024-04-15T07:57:29.380Z,21.11
2024-04-15T07:59:56.450Z,21.20
2024-04-15T08:02:24.014Z,21.28
2024-04-15T08:04:51.154Z,21.31
2024-04-15T08:07:18.338Z,21.36
2024-04-15T08:09:45.296Z,21.39
2024-04-15T08:12:12.216Z,21.43
2024-04-15T08:14:39.234Z,21.49
2024-04-15T08:17:06.627Z,21.57
2024-04-15T08:19:35.871Z,21.66
2024-04-15T08:22:02.879Z,21.73
2024-04-15T08:24:29.805Z,21.79
2024-04-15T08:26:56.870Z,21.86
2024-04-15T08:29:24.016Z,21.93
2024-04-15T08:31:53.816Z,21.98
2024-04-15T08:34:22.522Z,22.04
2024-04-15T08:36:49.520Z,22.05
2024-04-15T08:39:16.633Z,22.06
2024-04-15T08:42:04.790Z,22.09
2024-04-15T08:44:33.897Z,22.18
2024-04-15T08:47:05.379Z,22.33
2024-04-15T08:49:32.473Z,22.49
2024-04-15T08:52:01.294Z,22.72
2024-04-15T08:54:28.315Z,22.96
2024-04-15T08:56:58.114Z,23.26
2024-04-15T08:59:25.130Z,23.62
2024-04-15T09:01:53.352Z,23.96
2024-04-15T09:04:20.566Z,24.25
2024-04-15T09:06:47.598Z,24.48
2024-04-15T09:09:14.875Z,24.66
2024-04-15T09:11:41.845Z,24.82
2024-04-15T09:14:08.764Z,24.99
2024-04-15T09:16:36.048Z,25.14
2024-04-15T09:19:07.660Z,25.32
2024-04-15T09:21:37.022Z,25.50
2024-04-15T09:24:04.518Z,25.71
2024-04-15T09:26:31.884Z,25.93
2024-04-15T09:28:58.809Z,26.11
2024-04-15T09:31:26.542Z,26.17
2024-04-15T09:33:54.141Z,26.10
2024-04-15T09:36:27.660Z,26.09
2024-04-15T09:38:55.306Z,26.13
2024-04-15T09:41:22.766Z,26.20
2024-04-15T09:43:50.642Z,26.30
2024-04-15T09:46:18.238Z,26.35
2024-04-15T09:48:48.683Z,26.30
2024-04-15T09:51:25.432Z,26.18
2024-04-15T09:53:52.781Z,26.10
2024-04-15T09:56:27.080Z,26.07
2024-04-15T09:58:56.256Z,26.08
2024-04-15T10:01:37.554Z,26.07
2024-04-15T10:04:09.237Z,26.04
2024-04-15T10:06:36.337Z,25.96
2024-04-15T10:09:03.881Z,25.89
2024-04-15T10:11:31.756Z,25.76
2024-04-15T10:13:59.587Z,25.68
2024-04-15T10:18:59.789Z,25.58
2024-04-15T10:21:27.116Z,25.62
2024-04-15T10:23:57.390Z,25.64
2024-04-15T10:26:29.590Z,25.68
2024-04-15T10:29:15.105Z,25.76
2024-04-15T10:31:42.198Z,25.90
2024-04-15T10:34:14.246Z,26.01
2024-04-15T10:36:44.193Z,26.07
2024-04-15T10:39:18.761Z,26.09
2024-04-15T10:41:46.753Z,26.04
2024-04-15T10:44:13.641Z,26.06
2024-04-15T10:46:41.341Z,26.10
2024-04-15T10:49:08.507Z,26.14
2024-04-15T10:51:35.663Z,26.17
2024-04-15T10:54:02.932Z,26.17
2024-04-15T10:56:30.094Z,26.17
2024-04-15T10:58:57.183Z,26.20
2024-04-15T11:01:24.105Z,26.16
2024-04-15T11:03:51.164Z,26.14
2024-04-15T11:06:19.602Z,26.12
2024-04-15T11:08:46.640Z,26.14
2024-04-15T11:11:14.131Z,26.13
2024-04-15T11:13:41.857Z,26.12
2024-04-15T11:16:13.816Z,26.13
2024-04-15T11:18:40.932Z,26.10
2024-04-15T11:21:09.458Z,26.10
2024-04-15T11:23:36.806Z,26.06
2024-04-15T11:26:04.389Z,26.00
2024-04-15T11:28:32.549Z,25.98
2024-04-15T11:31:00.220Z,25.95
2024-04-15T11:33:28.177Z,25.99
2024-04-15T11:35:55.320Z,26.07
2024-04-15T11:38:22.567Z,26.16
2024-04-15T11:40:49.830Z,26.31
2024-04-15T11:43:17.265Z,26.44
2024-04-15T11:45:51.376Z,26.52
2024-04-15T11:48:18.915Z,26.58
2024-04-15T11:50:46.232Z,26.66
2024-04-15T11:53:13.499Z,26.79
2024-04-15T11:55:40.848Z,26.91
2024-04-15T11:58:08.238Z,27.04
2024-04-15T12:00:35.960Z,27.03
2024-04-15T12:03:03.226Z,27.15
2024-04-15T12:05:30.630Z,27.35
2024-04-15T12:07:58.050Z,27.46
2024-04-15T12:10:24.995Z,27.53
2024-04-15T12:12:52.024Z,27.64
2024-04-15T12:15:18.928Z,27.79
2024-04-15T12:17:46.277Z,27.87
2024-04-15T12:20:13.433Z,27.97
2024-04-15T12:22:40.474Z,28.06
2024-04-15T12:25:09.797Z,28.14
2024-04-15T12:27:39.220Z,28.32
2024-04-15T12:30:09.841Z,28.48
2024-04-15T12:32:36.923Z,28.57
2024-04-15T12:35:04.184Z,28.71
2024-04-15T12:37:31.496Z,28.83
2024-04-15T12:39:58.852Z,28.93
2024-04-15T12:42:26.050Z,29.07
2024-04-15T12:44:53.063Z,29.17
2024-04-15T12:47:20.135Z,29.30
2024-04-15T12:49:47.118Z,29.41
2024-04-15T12:52:13.965Z,29.40
2024-04-15T12:54:40.958Z,29.55
2024-04-15T12:57:09.253Z,29.71
2024-04-15T12:59:36.717Z,29.87
2024-04-15T13:02:09.098Z,30.00
2024-04-15T13:04:40.109Z,30.14
2024-04-15T13:07:07.729Z,30.25
2024-04-15T13:09:34.830Z,30.41
2024-04-15T13:12:01.801Z,30.53
2024-04-15T13:14:28.862Z,30.60
2024-04-15T13:16:56.005Z,30.67
2024-04-15T13:19:23.223Z,30.80
2024-04-15T13:21:50.583Z,31.00
2024-04-15T13:24:17.938Z,31.13
2024-04-15T13:26:45.017Z,31.17
2024-04-15T13:29:12.140Z,31.16
2024-04-15T13:31:39.459Z,31.05
2024-04-15T13:34:09.083Z,30.95
2024-04-15T13:36:36.606Z,30.90
2024-04-15T13:39:03.587Z,30.87
2024-04-15T13:41:30.599Z,30.70
2024-04-15T13:43:57.534Z,30.49
2024-04-15T13:46:24.595Z,30.29
2024-04-15T13:48:51.547Z,30.09
2024-04-15T13:51:19.650Z,29.98
2024-04-15T13:53:46.577Z,29.88
2024-04-15T13:56:13.802Z,29.77
2024-04-15T13:58:41.242Z,29.73
2024-04-15T14:01:08.979Z,29.69
2024-04-15T14:03:36.446Z,29.60
2024-04-15T14:06:04.825Z,29.37
2024-04-15T14:08:31.922Z,29.18
2024-04-15T14:10:59.810Z,29.18
2024-04-15T14:13:27.095Z,29.24
2024-04-15T14:15:54.446Z,29.28
2024-04-15T14:18:21.577Z,29.31
2024-04-15T14:20:49.370Z,29.29
2024-04-15T14:23:16.710Z,29.25
2024-04-15T14:25:44.285Z,29.21
2024-04-15T14:28:11.347Z,29.18
2024-04-15T14:30:39.493Z,29.17
2024-04-15T14:33:06.548Z,29.10
2024-04-15T14:35:33.801Z,29.07
2024-04-15T14:38:01.085Z,28.95
2024-04-15T14:40:31.355Z,28.80
2024-04-15T14:42:59.174Z,28.72
2024-04-15T14:45:26.223Z,28.67
2024-04-15T14:47:53.308Z,28.64
2024-04-15T14:50:20.438Z,28.60
2024-04-15T14:52:47.475Z,28.64
2024-04-15T14:55:14.768Z,28.61
2024-04-15T14:57:41.739Z,28.54
2024-04-15T15:00:12.168Z,28.51
2024-04-15T15:02:39.335Z,28.41
2024-04-15T15:05:06.573Z,28.36
2024-04-15T15:07:34.028Z,28.31
2024-04-15T15:10:01.613Z,28.24
2024-04-15T15:12:28.923Z,28.14
2024-04-15T15:14:56.049Z,28.06
2024-04-15T15:17:23.136Z,28.07
2024-04-15T15:19:53.260Z,28.08
2024-04-15T15:22:21.192Z,28.06
2024-04-15T15:24:48.273Z,28.05
2024-04-15T15:27:15.558Z,28.07
2024-04-15T15:29:43.217Z,28.10
2024-04-15T15:32:10.863Z,28.12
2024-04-15T15:34:38.977Z,28.08
2024-04-15T15:37:06.799Z,28.00
2024-04-15T15:39:33.987Z,27.91
2024-04-15T15:42:01.130Z,27.82
2024-04-15T15:44:28.399Z,27.69
2024-04-15T15:46:55.573Z,27.46
2024-04-15T15:49:22.774Z,27.23
2024-04-15T15:51:59.609Z,27.07
2024-04-15T15:54:26.669Z,26.93
2024-04-15T15:56:53.886Z,26.90
2024-04-15T15:59:21.096Z,26.93
2024-04-15T16:01:48.375Z,26.92
2024-04-15T16:04:16.333Z,26.83
2024-04-15T16:06:43.532Z,26.78
2024-04-15T16:09:10.693Z,26.66
2024-04-15T16:11:45.877Z,26.54
2024-04-15T16:14:14.106Z,26.48
2024-04-15T16:16:41.463Z,26.44
2024-04-15T16:19:09.898Z,26.39
2024-04-15T16:21:38.997Z,26.35
2024-04-15T16:24:06.443Z,26.29
2024-04-15T16:26:34.499Z,26.24
2024-04-15T16:29:04.938Z,26.20
2024-04-15T16:31:32.423Z,26.18
2024-04-15T16:33:59.765Z,26.17
2024-04-15T16:36:29.332Z,26.11
2024-04-15T16:38:56.638Z,26.04
2024-04-15T16:41:24.004Z,25.94
2024-04-15T16:43:51.800Z,25.82
2024-04-15T16:46:19.376Z,25.69
2024-04-15T16:48:46.480Z,25.53
2024-04-15T16:51:13.629Z,25.34
2024-04-15T16:53:40.901Z,25.08
2024-04-15T16:56:08.963Z,24.84
2024-04-15T16:58:36.473Z,24.59
2024-04-15T17:01:04.140Z,24.35
2024-04-15T17:03:31.378Z,23.98
2024-04-15T17:05:58.605Z,23.60
2024-04-15T17:08:26.179Z,23.22
2024-04-15T17:10:53.688Z,22.93
2024-04-15T17:13:21.180Z,22.61
2024-04-15T17:15:48.764Z,22.27
2024-04-15T17:18:16.183Z,21.93
2024-04-15T17:20:43.790Z,21.63
2024-04-15T17:23:10.750Z,21.41
2024-04-15T17:25:37.963Z,21.19
2024-04-15T17:28:05.638Z,21.00
2024-04-15T17:30:32.518Z,20.76
2024-04-15T17:32:59.541Z,20.51
2024-04-15T17:35:26.940Z,20.26
2024-04-15T17:37:53.983Z,20.07
2024-04-15T17:40:21.135Z,19.84
2024-04-15T17:42:50.854Z,19.60
2024-04-15T17:45:18.151Z,19.41
2024-04-15T17:47:45.912Z,19.25
2024-04-15T17:50:12.940Z,19.07
2024-04-15T17:52:40.079Z,18.97
2024-04-15T17:55:07.324Z,18.83
2024-04-15T17:57:34.915Z,18.73
2024-04-15T18:00:02.239Z,18.65
2024-04-15T18:02:32.422Z,18.59
2024-04-15T18:04:59.640Z,18.53
2024-04-15T18:07:27.035Z,18.46
2024-04-15T18:09:54.300Z,18.43
2024-04-15T18:12:21.559Z,18.40
2024-04-15T18:14:48.702Z,18.40
2024-04-15T18:17:15.849Z,18.41
2024-04-15T18:19:43.105Z,18.41
2024-04-15T18:22:10.224Z,18.42
2024-04-15T18:24:37.415Z,18.42
2024-04-15T18:27:04.733Z,18.45
2024-04-15T18:29:31.725Z,18.48
2024-04-15T18:31:59.019Z,18.52
2024-04-15T18:34:27.926Z,18.53
2024-04-15T18:36:55.572Z,18.57
2024-04-15T18:39:22.911Z,18.58
2024-04-15T18:41:50.177Z,18.59
2024-04-15T18:44:17.230Z,18.59
2024-04-15T18:46:44.683Z,18.62
2024-04-15T18:49:11.665Z,18.66
2024-04-15T18:51:38.993Z,18.67
2024-04-15T18:54:06.772Z,18.65
2024-04-15T18:56:33.920Z,18.67
2024-04-15T18:59:01.094Z,18.71
2024-04-15T19:01:28.170Z,18.72
2024-04-15T19:03:57.084Z,18.71
2024-04-15T19:06:24.593Z,18.64
2024-04-15T19:08:52.170Z,18.49
2024-04-15T19:11:19.278Z,18.42
2024-04-15T19:13:46.566Z,18.35
2024-04-15T19:16:13.932Z,18.22
2024-04-15T19:18:41.397Z,18.11
2024-04-15T19:21:08.761Z,18.02
2024-04-15T19:23:36.325Z,17.92
2024-04-15T19:26:03.678Z,17.82
2024-04-15T19:28:31.644Z,17.73
2024-04-15T19:30:58.926Z,17.63
2024-04-15T19:33:26.248Z,17.55
2024-04-15T19:35:53.374Z,17.51
2024-04-15T19:38:20.921Z,17.45
2024-04-15T19:40:48.255Z,17.39
2024-04-15T19:43:15.385Z,17.34
2024-04-15T19:45:42.600Z,17.30
2024-04-15T19:48:10.229Z,17.25
2024-04-15T19:50:37.696Z,17.21
2024-04-15T19:53:04.648Z,17.18
2024-04-15T19:55:31.839Z,17.13
2024-04-15T19:58:00.950Z,17.05
2024-04-15T20:00:28.951Z,17.01
2024-04-15T20:02:56.220Z,16.98
2024-04-15T20:05:25.913Z,16.93
2024-04-15T20:07:53.008Z,16.87
2024-04-15T20:10:20.224Z,16.79
2024-04-15T20:12:47.639Z,16.71
2024-04-15T20:15:17.028Z,16.68
2024-04-15T20:17:56.168Z,16.66
2024-04-15T20:20:29.153Z,16.63
2024-04-15T20:22:56.201Z,16.58
2024-04-15T20:25:23.380Z,16.56
2024-04-15T20:27:50.709Z,16.57
2024-04-15T20:30:17.999Z,16.56
2024-04-15T20:32:46.493Z,16.53
2024-04-15T20:35:14.175Z,16.51
2024-04-15T20:37:41.387Z,16.48
2024-04-15T20:40:09.088Z,16.47
2024-04-15T20:42:37.339Z,16.44
2024-04-15T20:45:05.103Z,16.43
2024-04-15T20:47:32.403Z,16.40
2024-04-15T20:50:02.394Z,16.36
2024-04-15T20:52:29.955Z,16.31
2024-04-15T20:55:00.630Z,16.28
2024-04-15T20:57:27.945Z,16.25
2024-04-15T20:59:55.633Z,16.24
2024-04-15T21:02:23.103Z,16.23
2024-04-15T21:04:50.492Z,16.22
2024-04-15T21:07:20.923Z,16.20
2024-04-15T21:09:54.093Z,16.15
2024-04-15T21:12:21.623Z,16.10
2024-04-15T21:14:48.983Z,16.06
2024-04-15T21:17:16.712Z,16.03
2024-04-15T21:19:43.907Z,15.96
2024-04-15T21:22:11.073Z,15.91
2024-04-15T21:24:39.550Z,15.87
2024-04-15T21:27:08.242Z,15.82
2024-04-15T21:29:36.120Z,15.78
2024-04-15T21:32:06.588Z,15.77
2024-04-15T21:34:33.825Z,15.75
2024-04-15T21:37:01.420Z,15.71
2024-04-15T21:39:28.945Z,15.67
2024-04-15T21:41:56.312Z,15.64
2024-04-15T21:44:23.447Z,15.59
2024-04-15T21:46:57.078Z,15.60
2024-04-15T21:49:30.063Z,15.62
2024-04-15T21:51:57.527Z,15.65
2024-04-15T21:54:32.359Z,15.67
2024-04-15T21:57:02.645Z,15.67
2024-04-15T21:59:32.580Z,15.67
2024-04-15T22:02:00.271Z,15.57
2024-04-15T22:04:27.739Z,15.48
2024-04-15T22:06:57.960Z,15.46
2024-04-15T22:09:28.075Z,15.43
2024-04-15T22:12:04.324Z,15.40
2024-04-15T22:14:31.792Z,15.39
2024-04-15T22:16:58.984Z,15.37
2024-04-15T22:19:33.632Z,15.35
2024-04-15T22:22:03.420Z,15.27
2024-04-15T22:24:30.846Z,15.22
2024-04-15T22:26:58.320Z,15.15
2024-04-15T22:29:28.228Z,15.12
2024-04-15T22:32:04.816Z,15.09
2024-04-15T22:34:32.130Z,15.05
2024-04-15T22:36:59.465Z,15.00
2024-04-15T22:39:27.711Z,14.99
2024-04-15T22:41:54.860Z,15.01
2024-04-15T22:44:22.931Z,15.04
2024-04-15T22:46:50.355Z,14.99
2024-04-15T22:49:23.418Z,14.99
2024-04-15T22:51:54.327Z,15.02
2024-04-15T22:54:24.075Z,15.05
2024-04-15T22:56:51.399Z,15.07
2024-04-15T22:59:21.836Z,15.09
2024-04-15T23:01:53.375Z,15.11
2024-04-15T23:04:20.996Z,15.05
2024-04-15T23:06:56.865Z,14.94
2024-04-15T23:09:27.648Z,15.03
2024-04-15T23:11:54.904Z,15.34
2024-04-15T23:14:22.320Z,15.76
2024-04-15T23:16:49.833Z,16.01
2024-04-15T23:19:19.695Z,16.18
2024-04-15T23:21:46.799Z,16.35
2024-04-15T23:24:13.961Z,16.50
2024-04-15T23:26:41.062Z,16.60
2024-04-15T23:29:08.372Z,16.67
2024-04-15T23:31:35.976Z,16.73
2024-04-15T23:34:03.325Z,16.77
2024-04-15T23:36:30.672Z,16.80
2024-04-15T23:39:01.091Z,16.81
2024-04-15T23:41:30.391Z,16.81
2024-04-15T23:43:57.467Z,16.82
2024-04-15T23:46:47.202Z,16.82
2024-04-15T23:49:33.339Z,16.77
2024-04-15T23:52:19.322Z,16.72
2024-04-15T23:55:07.965Z,16.74
2024-04-15T23:58:06.559Z,16.72
